PPM weather

Pompano Beach Airpark
Pompano Beach, Florida, United States

Public forecast

Using degrees Fahrenheit for public forecast. Weather courtesy of forecast.io.

Current aviation weather report (METAR) for Pompano Beach Airpark

Retrieved 2019/11/14 06:53 UTC (1 hour ago):

KPMP 140653Z AUTO -RA BR RMK AO2 SLPNO PNO

Closest aviation forecast (TAF) to Pompano Beach Airpark

Closest forecast is Fort Lauderdale Executive Airport, 4.4 nm (8.1 km) SW. Retrieved 2019/11/14 06:54 UTC (1 hour ago):

TAF KFXE 140551Z 1406/1506 07015G25KT P6SM SCT030 SCT050 BKN100 TEMPO 1406/1410 -SHRA BKN035 BKN050 FM141400 10012G22KT P6SM VCSH SCT025 BKN050 BKN100 FM142100 12008KT P6SM VCSH SCT025 BKN040 BKN100 FM150300 14004KT P6SM SCT040 BKN100